createdAt,value
2018-06-29T00:01:23.667Z,100989.85
2018-06-29T00:03:52.506Z,100983.55
2018-06-29T00:06:21.917Z,100991.64
2018-06-29T00:08:51.510Z,100992.03
2018-06-29T00:11:21.006Z,100988.94
2018-06-29T00:13:50.774Z,100998.88
2018-06-29T00:16:20.478Z,101005.50
2018-06-29T00:18:51.126Z,101014.09
2018-06-29T00:21:20.457Z,101021.68
2018-06-29T00:23:49.058Z,101023.56
2018-06-29T00:26:18.388Z,101025.70
2018-06-29T00:28:47.177Z,101027.22
2018-06-29T00:31:16.629Z,101027.88
2018-06-29T00:33:45.418Z,101031.86
2018-06-29T00:36:14.252Z,101030.63
2018-06-29T00:38:43.050Z,101035.00
2018-06-29T00:41:11.828Z,101036.47
2018-06-29T00:43:40.749Z,101040.05
2018-06-29T00:46:09.578Z,101042.59
2018-06-29T00:48:38.659Z,101042.33
2018-06-29T00:51:07.557Z,101047.81
2018-06-29T00:53:37.199Z,101044.84
2018-06-29T00:56:06.858Z,101048.09
2018-06-29T00:58:35.651Z,101050.03
2018-06-29T01:01:04.487Z,101055.02
2018-06-29T01:03:34.054Z,101057.55
2018-06-29T01:06:04.016Z,101062.27
2018-06-29T01:08:34.003Z,101063.23
2018-06-29T01:11:03.073Z,101051.75
2018-06-29T01:13:32.555Z,101061.34
2018-06-29T01:16:02.626Z,101067.66
2018-06-29T01:18:33.744Z,101060.30
2018-06-29T01:21:04.320Z,101065.31
2018-06-29T01:23:34.337Z,101057.13
2018-06-29T01:26:03.746Z,101058.34
2018-06-29T01:28:33.730Z,101069.59
2018-06-29T01:31:03.694Z,101066.28
2018-06-29T01:33:32.766Z,101066.49
2018-06-29T01:36:02.056Z,101073.41
2018-06-29T01:38:31.702Z,101070.41
2018-06-29T01:41:00.730Z,101082.30
2018-06-29T01:43:29.632Z,101081.94
2018-06-29T01:45:58.479Z,101080.72
2018-06-29T01:48:27.262Z,101084.07
2018-06-29T01:50:56.636Z,101084.20
2018-06-29T01:53:25.452Z,101089.14
2018-06-29T01:55:55.425Z,101088.97
2018-06-29T01:58:24.230Z,101093.75
2018-06-29T02:00:53.035Z,101098.78
2018-06-29T02:03:21.894Z,101097.77
2018-06-29T02:05:51.724Z,101096.17
2018-06-29T02:08:21.130Z,101102.52
2018-06-29T02:10:51.334Z,101106.78
2018-06-29T02:13:20.111Z,101110.52
2018-06-29T02:15:49.595Z,101104.14
2018-06-29T02:18:19.154Z,101106.41
2018-06-29T02:20:48.800Z,101110.48
2018-06-29T02:23:17.602Z,101102.44
2018-06-29T02:25:46.431Z,101114.48
2018-06-29T02:28:15.216Z,101108.37
2018-06-29T02:30:44.538Z,101113.91
2018-06-29T02:33:13.312Z,101113.51
2018-06-29T02:35:42.142Z,101109.58
2018-06-29T02:38:11.028Z,101112.27
2018-06-29T02:40:40.131Z,101118.70
2018-06-29T02:43:09.035Z,101117.56
2018-06-29T02:45:38.364Z,101115.23
2018-06-29T02:48:07.353Z,101123.52
2018-06-29T02:50:37.321Z,101111.48
2018-06-29T02:53:06.191Z,101115.28
2018-06-29T02:55:36.018Z,101114.05
2018-06-29T02:58:04.780Z,101117.70
2018-06-29T03:00:35.018Z,101116.70
2018-06-29T03:03:03.930Z,101113.69
2018-06-29T03:05:33.715Z,101113.48
2018-06-29T03:08:03.562Z,101126.55
2018-06-29T03:10:32.591Z,101116.91
2018-06-29T03:13:02.358Z,101118.75
2018-06-29T03:16:03.180Z,101116.05
2018-06-29T03:18:33.721Z,101115.24
2018-06-29T03:21:04.643Z,101111.37
2018-06-29T03:23:33.446Z,101110.50
2018-06-29T03:26:03.220Z,101122.32
2018-06-29T03:28:32.332Z,101113.23
2018-06-29T03:31:02.863Z,101116.43
2018-06-29T03:33:31.978Z,101113.25
2018-06-29T03:36:00.981Z,101117.05
2018-06-29T03:38:29.813Z,101127.12
2018-06-29T03:40:58.596Z,101128.26
2018-06-29T03:43:27.418Z,101121.96
2018-06-29T03:45:57.214Z,101122.58
2018-06-29T03:48:25.968Z,101117.39
2018-06-29T03:50:54.722Z,101126.42
2018-06-29T03:53:23.516Z,101121.61
2018-06-29T03:55:53.052Z,101124.90
2018-06-29T03:58:21.803Z,101123.82
2018-06-29T04:00:50.601Z,101123.81
2018-06-29T04:03:19.426Z,101127.09
2018-06-29T04:05:49.045Z,101132.28
2018-06-29T04:08:18.530Z,101132.30
2018-06-29T04:10:47.460Z,101125.74
2018-06-29T04:13:16.191Z,101125.98
2018-06-29T04:15:46.367Z,101121.05
2018-06-29T04:18:15.899Z,101126.98
2018-06-29T04:20:45.123Z,101130.34
2018-06-29T04:23:13.943Z,101126.64
2018-06-29T04:25:42.731Z,101122.87
2018-06-29T04:28:11.489Z,101130.07
2018-06-29T04:30:41.034Z,101134.01
2018-06-29T04:33:09.794Z,101138.61
2018-06-29T04:35:38.604Z,101140.98
2018-06-29T04:38:07.399Z,101136.39
2018-06-29T04:40:36.162Z,101139.82
2018-06-29T04:43:05.063Z,101140.08
2018-06-29T04:45:35.134Z,101132.67
2018-06-29T04:48:04.301Z,101135.30
2018-06-29T04:50:34.303Z,101138.92
2018-06-29T04:53:03.649Z,101136.38
2018-06-29T04:55:34.254Z,101126.23
2018-06-29T04:58:03.668Z,101137.06
2018-06-29T05:00:47.083Z,101132.38
2018-06-29T05:03:15.847Z,101134.87
2018-06-29T05:05:45.498Z,101138.78
2018-06-29T05:08:15.003Z,101138.40
2018-06-29T05:10:43.817Z,101137.80
2018-06-29T05:13:12.631Z,101152.31
2018-06-29T05:15:42.917Z,101151.02
2018-06-29T05:18:12.462Z,101146.09
2018-06-29T05:20:41.247Z,101144.52
2018-06-29T05:23:09.998Z,101141.27
2018-06-29T05:25:38.810Z,101140.16
2018-06-29T05:28:07.585Z,101129.09
2018-06-29T05:30:36.886Z,101133.24
2018-06-29T05:33:05.720Z,101136.16
2018-06-29T05:35:34.696Z,101141.73
2018-06-29T05:38:05.660Z,101134.68
2018-06-29T05:40:34.535Z,101140.96
2018-06-29T05:43:04.626Z,101140.36
2018-06-29T05:45:35.488Z,101132.93
2018-06-29T05:48:04.387Z,101138.33
2018-06-29T05:50:34.462Z,101145.91
2018-06-29T05:53:03.709Z,101137.98
2018-06-29T05:55:36.294Z,101145.47
2018-06-29T05:58:05.130Z,101134.34
2018-06-29T06:00:34.330Z,101136.36
2018-06-29T06:03:03.459Z,101143.27
2018-06-29T06:05:36.082Z,101145.66
2018-06-29T06:08:05.690Z,101138.08
2018-06-29T06:10:34.810Z,101142.23
2018-06-29T06:13:03.778Z,101134.48
2018-06-29T06:15:34.311Z,101133.59
2018-06-29T06:18:04.622Z,101135.11
2018-06-29T06:20:34.498Z,101136.13
2018-06-29T06:23:16.025Z,101153.25
2018-06-29T06:25:45.031Z,101143.75
2018-06-29T06:28:13.883Z,101136.29
2018-06-29T06:30:43.973Z,101139.13
2018-06-29T06:33:12.838Z,101139.13
2018-06-29T06:35:41.953Z,101145.72
2018-06-29T06:38:10.766Z,101146.24
2018-06-29T06:40:40.511Z,101147.82
2018-06-29T06:43:09.285Z,101142.41
2018-06-29T06:45:38.110Z,101131.13
2018-06-29T06:48:06.941Z,101132.03
2018-06-29T06:50:35.679Z,101132.88
2018-06-29T06:53:04.720Z,101132.45
2018-06-29T06:55:34.572Z,101139.63
2018-06-29T06:58:03.786Z,101138.47
2018-06-29T07:00:32.931Z,101138.87
2018-06-29T07:03:02.674Z,101146.78
2018-06-29T07:05:32.347Z,101148.22
2018-06-29T07:08:02.259Z,101149.52
2018-06-29T07:10:31.309Z,101144.88
2018-06-29T07:13:00.091Z,101143.33
2018-06-29T07:15:29.540Z,101151.09
2018-06-29T07:17:59.007Z,101157.11
2018-06-29T07:20:27.798Z,101161.54
2018-06-29T07:22:56.655Z,101147.75
2018-06-29T07:25:25.462Z,101153.37
2018-06-29T07:27:54.454Z,101147.55
2018-06-29T07:30:23.844Z,101144.13
2018-06-29T07:32:52.660Z,101145.41
2018-06-29T07:35:21.403Z,101144.20
2018-06-29T07:37:51.723Z,101139.96
2018-06-29T07:40:20.500Z,101133.09
2018-06-29T07:42:49.254Z,101149.59
2018-06-29T07:45:18.083Z,101141.41
2018-06-29T07:47:46.878Z,101135.00
2018-06-29T07:50:15.767Z,101137.25
2018-06-29T07:52:45.337Z,101149.59
2018-06-29T07:55:14.655Z,101139.66
2018-06-29T07:57:44.234Z,101145.21
2018-06-29T08:00:13.098Z,101139.38
2018-06-29T08:02:41.900Z,101140.67
2018-06-29T08:05:11.759Z,101140.49
2018-06-29T08:07:41.253Z,101135.80
2018-06-29T08:10:09.977Z,101140.48
2018-06-29T08:12:38.733Z,101138.25
2018-06-29T08:15:08.171Z,101141.76
2018-06-29T08:17:37.718Z,101124.98
2018-06-29T08:20:06.658Z,101125.10
2018-06-29T08:22:35.516Z,101119.80
2018-06-29T08:25:13.212Z,101121.16
2018-06-29T08:27:42.297Z,101117.28
2018-06-29T08:30:13.056Z,101118.54
2018-06-29T08:32:41.918Z,101110.41
2018-06-29T08:35:12.100Z,101133.23
2018-06-29T08:37:41.029Z,101124.85
2018-06-29T08:40:10.674Z,101119.72
2018-06-29T08:42:39.510Z,101131.09
2018-06-29T08:45:09.132Z,101127.92
2018-06-29T08:47:38.009Z,101121.53
2018-06-29T08:50:06.822Z,101127.08
2018-06-29T08:52:35.644Z,101132.80
2018-06-29T08:55:05.079Z,101122.11
2018-06-29T08:57:35.100Z,101122.39
2018-06-29T09:00:04.815Z,101123.11
2018-06-29T09:02:34.221Z,101135.77
2018-06-29T09:05:04.414Z,101122.39
2018-06-29T09:07:34.314Z,101115.88
2018-06-29T09:10:03.247Z,101131.69
2018-06-29T09:12:32.369Z,101135.34
2018-06-29T09:15:01.982Z,101136.22
2018-06-29T09:17:31.607Z,101131.31
2018-06-29T09:20:00.764Z,101115.16
2018-06-29T09:22:29.603Z,101118.08
2018-06-29T09:24:58.443Z,101122.46
2018-06-29T09:27:27.309Z,101129.56
2018-06-29T09:29:57.311Z,101125.83
2018-06-29T09:32:26.770Z,101126.66
2018-06-29T09:34:55.575Z,101121.91
2018-06-29T09:37:24.480Z,101117.20
2018-06-29T09:39:53.278Z,101130.98
2018-06-29T09:42:22.060Z,101129.68
2018-06-29T09:44:51.044Z,101140.05
2018-06-29T09:47:19.927Z,101142.66
2018-06-29T09:49:48.729Z,101132.23
2018-06-29T09:52:17.525Z,101135.58
2018-06-29T09:54:46.373Z,101140.77
2018-06-29T09:57:16.140Z,101131.25
2018-06-29T09:59:44.909Z,101125.91
2018-06-29T10:02:13.942Z,101122.81
2018-06-29T10:04:43.666Z,101116.14
2018-06-29T10:07:13.452Z,101113.92
2018-06-29T10:09:43.113Z,101113.30
2018-06-29T10:12:11.974Z,101119.48
2018-06-29T10:14:41.759Z,101112.01
2018-06-29T10:17:11.294Z,101111.34
2018-06-29T10:19:40.113Z,101105.50
2018-06-29T10:22:08.899Z,101112.38
2018-06-29T10:24:37.798Z,101111.40
2018-06-29T10:27:06.583Z,101112.41
2018-06-29T10:29:36.204Z,101108.55
2018-06-29T10:32:05.744Z,101109.25
2018-06-29T10:34:34.745Z,101115.08
2018-06-29T10:37:04.462Z,101103.23
2018-06-29T10:39:33.438Z,101112.55
2018-06-29T10:42:02.888Z,101124.83
2018-06-29T10:44:32.805Z,101112.38
2018-06-29T10:47:01.595Z,101115.34
2018-06-29T10:49:30.534Z,101109.13
2018-06-29T10:51:59.290Z,101115.16
2018-06-29T10:54:28.110Z,101108.51
2018-06-29T10:56:57.728Z,101108.30
2018-06-29T10:59:26.490Z,101112.45
2018-06-29T11:01:55.284Z,101110.93
2018-06-29T11:04:24.605Z,101120.44
2018-06-29T11:06:54.141Z,101122.16
2018-06-29T11:09:23.641Z,101128.92
2018-06-29T11:11:52.431Z,101113.02
2018-06-29T11:14:22.274Z,101105.39
2018-06-29T11:16:51.886Z,101114.31
2018-06-29T11:19:20.667Z,101123.73
2018-06-29T11:21:49.403Z,101112.91
2018-06-29T11:24:18.211Z,101113.23
2018-06-29T11:26:47.919Z,101116.71
2018-06-29T11:29:16.923Z,101120.04
2018-06-29T11:31:46.830Z,101112.01
2018-06-29T11:34:15.614Z,101117.63
2018-06-29T11:36:44.389Z,101130.11
2018-06-29T11:39:14.661Z,101119.69
2018-06-29T11:41:43.915Z,101107.47
2018-06-29T11:44:13.653Z,101103.52
2018-06-29T11:46:42.399Z,101109.38
2018-06-29T11:49:11.239Z,101109.98
2018-06-29T11:51:40.085Z,101107.72
2018-06-29T11:54:09.242Z,101089.19
2018-06-29T11:56:39.083Z,101095.03
2018-06-29T11:59:07.864Z,101114.25
2018-06-29T12:01:36.696Z,101102.48
2018-06-29T12:04:05.675Z,101098.42
2018-06-29T12:06:36.723Z,101101.46
2018-06-29T12:09:09.178Z,101101.94
2018-06-29T12:11:37.960Z,101099.81
2018-06-29T12:14:07.503Z,101098.48
2018-06-29T12:16:37.242Z,101097.38
2018-06-29T12:19:06.033Z,101103.42
2018-06-29T12:21:35.190Z,101103.83
2018-06-29T12:24:04.228Z,101111.09
2018-06-29T12:26:34.217Z,101101.01
2018-06-29T12:29:03.340Z,101103.61
2018-06-29T12:31:32.891Z,101104.81
2018-06-29T12:34:01.712Z,101117.42
2018-06-29T12:36:30.512Z,101114.47
2018-06-29T12:38:59.340Z,101107.94
2018-06-29T12:41:28.176Z,101104.70
2018-06-29T12:43:57.170Z,101092.38
2018-06-29T12:46:25.939Z,101088.98
2018-06-29T12:48:54.701Z,101079.52
2018-06-29T12:51:23.492Z,101092.36
2018-06-29T12:53:52.810Z,101091.80
2018-06-29T12:56:21.977Z,101083.08
2018-06-29T12:58:50.775Z,101086.62
2018-06-29T13:01:19.530Z,101090.52
2018-06-29T13:03:48.352Z,101088.61
2018-06-29T13:06:18.245Z,101093.00
2018-06-29T13:08:48.065Z,101096.84
2018-06-29T13:11:17.530Z,101086.64
2018-06-29T13:13:47.070Z,101090.09
2018-06-29T13:16:16.782Z,101088.98
2018-06-29T13:18:46.145Z,101089.19
2018-06-29T13:21:15.186Z,101082.14
2018-06-29T13:23:44.651Z,101091.22
2018-06-29T13:26:13.532Z,101086.22
2018-06-29T13:28:42.271Z,101094.20
2018-06-29T13:31:11.779Z,101096.08
2018-06-29T13:33:40.658Z,101091.70
2018-06-29T13:36:09.456Z,101086.59
2018-06-29T13:38:38.282Z,101081.67
2018-06-29T13:41:07.243Z,101085.43
2018-06-29T13:43:36.266Z,101082.37
2018-06-29T13:46:05.577Z,101086.73
2018-06-29T13:48:34.728Z,101090.37
2018-06-29T13:51:03.769Z,101083.06
2018-06-29T13:53:32.827Z,101081.63
2018-06-29T13:56:02.449Z,101076.12
2018-06-29T13:58:31.283Z,101087.28
2018-06-29T14:01:00.208Z,101081.28
2018-06-29T14:03:29.084Z,101084.92
2018-06-29T14:05:58.398Z,101082.32
2018-06-29T14:08:27.785Z,101077.41
2018-06-29T14:10:56.605Z,101079.91
2018-06-29T14:13:25.362Z,101076.77
2018-06-29T14:15:54.879Z,101073.12
2018-06-29T14:18:24.537Z,101080.61
2018-06-29T14:20:54.094Z,101071.81
2018-06-29T14:23:22.875Z,101070.45
2018-06-29T14:25:51.603Z,101071.88
2018-06-29T14:28:20.407Z,101070.11
2018-06-29T14:30:50.058Z,101071.27
2018-06-29T14:33:18.915Z,101073.21
2018-06-29T14:35:47.724Z,101065.05
2018-06-29T14:38:16.558Z,101062.11
2018-06-29T14:40:45.295Z,101073.08
2018-06-29T14:43:14.475Z,101074.73
2018-06-29T14:45:43.362Z,101069.84
2018-06-29T14:48:12.195Z,101073.15
2018-06-29T14:50:40.950Z,101074.27
2018-06-29T14:53:09.787Z,101070.02
2018-06-29T14:55:39.819Z,101070.48
2018-06-29T14:58:08.587Z,101064.91
2018-06-29T15:00:37.331Z,101067.88
2018-06-29T15:03:06.323Z,101063.61
2018-06-29T15:05:35.831Z,101059.12
2018-06-29T15:08:05.677Z,101059.72
2018-06-29T15:10:35.471Z,101053.17
2018-06-29T15:13:04.596Z,101050.45
2018-06-29T15:15:34.139Z,101055.06
2018-06-29T15:18:04.468Z,101055.86
2018-06-29T15:20:33.378Z,101050.16
2018-06-29T15:23:02.356Z,101044.56
2018-06-29T15:25:31.179Z,101049.27
2018-06-29T15:27:59.967Z,101045.69
2018-06-29T15:30:29.493Z,101050.87
2018-06-29T15:32:58.274Z,101046.98
2018-06-29T15:35:27.062Z,101047.26
2018-06-29T15:37:55.852Z,101041.17
2018-06-29T15:40:24.661Z,101042.05
2018-06-29T15:42:53.540Z,101050.62
2018-06-29T15:45:22.407Z,101045.95
2018-06-29T15:47:51.156Z,101047.22
2018-06-29T15:50:19.920Z,101039.92
2018-06-29T15:52:48.754Z,101046.46
2018-06-29T15:55:18.654Z,101043.67
2018-06-29T15:57:47.438Z,101044.23
2018-06-29T16:00:16.511Z,101049.08
2018-06-29T16:02:45.302Z,101054.51
2018-06-29T16:05:16.294Z,101046.12
2018-06-29T16:07:45.564Z,101048.31
2018-06-29T16:10:14.347Z,101048.91
2018-06-29T16:12:43.100Z,101057.02
2018-06-29T16:15:12.763Z,101053.70
2018-06-29T16:17:41.956Z,101046.05
2018-06-29T16:20:10.885Z,101043.09
2018-06-29T16:22:39.690Z,101040.52
2018-06-29T16:25:08.614Z,101041.27
2018-06-29T16:27:37.371Z,101039.05
2018-06-29T16:30:07.499Z,101047.05
2018-06-29T16:32:36.398Z,101050.20
2018-06-29T16:35:07.062Z,101046.41
2018-06-29T16:37:36.085Z,101048.48
2018-06-29T16:40:05.931Z,101046.52
2018-06-29T16:42:35.114Z,101052.88
2018-06-29T16:45:04.471Z,101046.66
2018-06-29T16:47:33.344Z,101056.27
2018-06-29T16:50:02.166Z,101058.95
2018-06-29T16:52:31.176Z,101054.21
2018-06-29T16:54:59.923Z,101063.38
2018-06-29T16:57:29.558Z,101071.73
2018-06-29T16:59:58.290Z,101066.43
2018-06-29T17:02:27.117Z,101070.33
2018-06-29T17:04:56.550Z,101071.89
2018-06-29T17:07:25.972Z,101070.45
2018-06-29T17:09:54.840Z,101069.16
2018-06-29T17:12:24.520Z,101068.41
2018-06-29T17:14:54.058Z,101075.60
2018-06-29T17:17:23.618Z,101067.20
2018-06-29T17:19:52.405Z,101065.78
2018-06-29T17:22:21.246Z,101056.08
2018-06-29T17:24:50.069Z,101058.68
2018-06-29T17:27:18.850Z,101059.04
2018-06-29T17:29:47.790Z,101061.90
2018-06-29T17:32:17.098Z,101056.90
2018-06-29T17:34:45.878Z,101062.12
2018-06-29T17:37:14.771Z,101061.45
2018-06-29T17:39:43.700Z,101069.22
2018-06-29T17:42:12.507Z,101063.00
2018-06-29T17:44:41.706Z,101068.06
2018-06-29T17:47:10.506Z,101072.12
2018-06-29T17:49:39.265Z,101080.89
2018-06-29T17:52:08.144Z,101076.20
2018-06-29T17:54:37.511Z,101083.58
2018-06-29T17:57:07.322Z,101077.67
2018-06-29T17:59:36.420Z,101074.67
2018-06-29T18:02:05.557Z,101076.91
2018-06-29T18:04:35.401Z,101076.48
2018-06-29T18:07:05.431Z,101079.25
2018-06-29T18:09:34.204Z,101079.44
2018-06-29T18:12:03.685Z,101093.09
2018-06-29T18:14:33.242Z,101092.34
2018-06-29T18:17:02.942Z,101090.80
2018-06-29T18:19:31.706Z,101097.71
2018-06-29T18:22:00.491Z,101103.00
2018-06-29T18:24:29.288Z,101102.09
2018-06-29T18:26:58.239Z,101104.84
2018-06-29T18:29:27.145Z,101105.45
2018-06-29T18:31:56.630Z,101109.33
2018-06-29T18:34:25.431Z,101112.89
2018-06-29T18:36:54.339Z,101112.95
2018-06-29T18:39:23.128Z,101107.88
2018-06-29T18:41:52.461Z,101114.75
2018-06-29T18:44:21.366Z,101111.78
2018-06-29T18:46:50.447Z,101105.45
2018-06-29T18:49:19.251Z,101102.19
2018-06-29T18:51:48.098Z,101114.58
2018-06-29T18:54:16.872Z,101118.13
2018-06-29T18:56:46.914Z,101120.02
2018-06-29T18:59:16.375Z,101119.21
2018-06-29T19:01:45.849Z,101121.48
2018-06-29T19:04:14.797Z,101117.42
2018-06-29T19:06:44.276Z,101115.24
2018-06-29T19:09:13.786Z,101118.81
2018-06-29T19:11:42.539Z,101114.50
2018-06-29T19:14:11.986Z,101122.66
2018-06-29T19:16:41.710Z,101125.63
2018-06-29T19:19:10.499Z,101127.63
2018-06-29T19:21:39.236Z,101130.98
2018-06-29T19:24:08.359Z,101131.98
2018-06-29T19:26:37.279Z,101132.55
2018-06-29T19:29:06.702Z,101139.59
2018-06-29T19:31:36.847Z,101145.84
2018-06-29T19:34:06.067Z,101149.95
2018-06-29T19:36:35.105Z,101147.40
2018-06-29T19:39:05.628Z,101145.05
2018-06-29T19:41:34.688Z,101155.23
2018-06-29T19:44:03.601Z,101167.27
2018-06-29T19:46:32.391Z,101156.42
2018-06-29T19:49:01.114Z,101160.30
2018-06-29T19:51:29.936Z,101165.08
2018-06-29T19:53:58.767Z,101162.50
2018-06-29T19:56:28.390Z,101161.76
2018-06-29T19:58:57.222Z,101167.58
2018-06-29T20:01:26.582Z,101173.91
2018-06-29T20:03:56.002Z,101174.20
2018-06-29T20:06:25.789Z,101177.73
2018-06-29T20:08:55.300Z,101175.08
2018-06-29T20:11:24.237Z,101180.19
2018-06-29T20:13:54.272Z,101183.48
2018-06-29T20:16:23.665Z,101187.25
2018-06-29T20:18:52.962Z,101189.48
2018-06-29T20:21:21.769Z,101185.45
2018-06-29T20:23:50.550Z,101190.34
2018-06-29T20:26:19.346Z,101193.61
2018-06-29T20:28:48.110Z,101187.89
2018-06-29T20:31:17.862Z,101193.84
2018-06-29T20:33:46.641Z,101200.08
2018-06-29T20:36:15.503Z,101197.61
2018-06-29T20:38:44.332Z,101192.20
2018-06-29T20:41:13.081Z,101201.12
2018-06-29T20:43:42.030Z,101203.31
2018-06-29T20:46:11.201Z,101201.96
2018-06-29T20:48:41.005Z,101198.86
2018-06-29T20:51:09.784Z,101199.56
2018-06-29T20:53:39.281Z,101202.66
2018-06-29T20:56:09.293Z,101201.64
2018-06-29T20:58:38.277Z,101210.24
2018-06-29T21:01:08.119Z,101216.14
2018-06-29T21:03:37.677Z,101214.97
2018-06-29T21:06:07.810Z,101219.47
2018-06-29T21:08:37.802Z,101215.08
2018-06-29T21:11:07.028Z,101217.42
2018-06-29T21:13:35.878Z,101220.91
2018-06-29T21:16:06.662Z,101226.95
2018-06-29T21:18:36.331Z,101231.64
2018-06-29T21:21:05.898Z,101225.77
2018-06-29T21:23:34.929Z,101241.13
2018-06-29T21:26:03.770Z,101236.29
2018-06-29T21:28:32.507Z,101239.81
2018-06-29T21:31:02.161Z,101238.19
2018-06-29T21:33:30.966Z,101242.23
2018-06-29T21:35:59.706Z,101240.40
2018-06-29T21:38:28.530Z,101240.39
2018-06-29T21:40:57.293Z,101242.80
2018-06-29T21:43:26.194Z,101249.32
2018-06-29T21:45:55.931Z,101251.52
2018-06-29T21:48:24.698Z,101255.34
2018-06-29T21:50:53.486Z,101258.13
2018-06-29T21:53:22.264Z,101259.92
2018-06-29T21:55:52.116Z,101261.36
2018-06-29T21:58:20.878Z,101255.95
2018-06-29T22:00:50.559Z,101254.81
2018-06-29T22:03:19.407Z,101260.31
2018-06-29T22:05:49.088Z,101255.34
2018-06-29T22:08:18.686Z,101259.78
2018-06-29T22:10:47.394Z,101264.11
2018-06-29T22:13:16.211Z,101267.52
2018-06-29T22:15:45.854Z,101269.16
2018-06-29T22:18:15.755Z,101277.03
2018-06-29T22:20:44.572Z,101275.14
2018-06-29T22:23:13.383Z,101275.46
2018-06-29T22:25:42.211Z,101280.30
2018-06-29T22:28:11.674Z,101277.05
2018-06-29T22:30:41.160Z,101275.82
2018-06-29T22:33:09.896Z,101282.62
2018-06-29T22:35:38.641Z,101281.79
2018-06-29T22:38:08.782Z,101276.29
2018-06-29T22:40:38.466Z,101282.14
2018-06-29T22:43:08.591Z,101278.22
2018-06-29T22:45:38.435Z,101282.84
2018-06-29T22:48:08.937Z,101289.12
2018-06-29T22:50:37.886Z,101286.10
2018-06-29T22:53:07.330Z,101287.40
2018-06-29T22:55:37.498Z,101280.14
2018-06-29T22:58:08.301Z,101279.77
2018-06-29T23:00:38.416Z,101281.92
2018-06-29T23:03:10.438Z,101287.56
2018-06-29T23:05:40.070Z,101286.00
2018-06-29T23:08:11.397Z,101291.41
2018-06-29T23:10:40.426Z,101290.33
2018-06-29T23:13:09.942Z,101288.31
2018-06-29T23:15:39.259Z,101288.15
2018-06-29T23:18:09.686Z,101287.19
2018-06-29T23:20:38.440Z,101290.77
2018-06-29T23:23:08.798Z,101287.03
2018-06-29T23:25:38.049Z,101291.11
2018-06-29T23:28:07.573Z,101295.90
2018-06-29T23:30:37.758Z,101296.37
2018-06-29T23:33:07.140Z,101304.53
2018-06-29T23:35:38.060Z,101301.94
2018-06-29T23:38:08.140Z,101304.35
2018-06-29T23:40:37.466Z,101302.13
2018-06-29T23:43:08.116Z,101300.38
2018-06-29T23:45:37.245Z,101307.73
2018-06-29T23:48:06.770Z,101307.91
2018-06-29T23:50:35.803Z,101312.03
2018-06-29T23:53:04.742Z,101319.55
2018-06-29T23:55:34.849Z,101305.94
2018-06-29T23:58:03.727Z,101314.24
